Time;durP1;ratioP1;P1;durP2;ratioP2;P2;SDS_P1;SDS_P2;PMS_P1;PMS_P2;Temp;Humidity;BMP_temperature;BMP_pressure;BME280_temperature;BME280_humidity;BME280_pressure;Samples;Min_cycle;Max_cycle;Signal;HPM_P1;HPM_P2
2021/12/07 00:02:24;;;;;;;16.80;13.73;;;;;;;2.15;77.23;99012.09;4947424;23;20329;-81
2021/12/07 00:04:58;;;;;;;19.57;15.07;;;;;;;1.99;77.56;98994.59;4956720;29;20233;-82
2021/12/07 00:07:27;;;;;;;19.13;14.77;;;;;;;2.06;77.06;99010.53;4956530;29;20248;-82
2021/12/07 00:09:59;;;;;;;18.50;14.83;;;;;;;2.00;75.22;98996.25;4939296;29;20233;-81
2021/12/07 00:12:34;;;;;;;20.33;14.70;;;;;;;2.01;74.83;98994.41;4962535;23;20289;-82
2021/12/07 00:15:26;;;;;;;21.10;14.93;;;;;;;1.80;76.70;99010.97;4959525;23;20241;-82
2021/12/07 00:17:55;;;;;;;18.77;14.80;;;;;;;1.71;76.29;98997.00;4937275;29;20241;-81
2021/12/07 00:20:26;;;;;;;21.37;16.00;;;;;;;1.88;76.11;98986.28;4963367;23;20258;-81
2021/12/07 00:23:28;;;;;;;19.70;14.53;;;;;;;1.97;75.14;99003.69;4945544;23;20225;-81
2021/12/07 00:25:57;;;;;;;21.73;14.97;;;;;;;1.99;74.88;98994.59;4955684;29;20233;-81
2021/12/07 00:28:28;;;;;;;19.20;15.00;;;;;;;1.93;74.67;98990.03;4921412;29;20229;-81
2021/12/07 00:31:09;;;;;;;19.17;14.10;;;;;;;1.76;75.20;98999.94;4937798;29;20225;-82
2021/12/07 00:33:49;;;;;;;22.27;15.63;;;;;;;1.77;76.02;98991.00;4953795;29;20221;-82
2021/12/07 00:36:44;;;;;;;20.13;14.87;;;;;;;1.81;75.84;98994.13;4967337;23;20535;-83
2021/12/07 00:39:18;;;;;;;19.70;15.00;;;;;;;1.70;76.06;98984.78;4938982;29;20253;-80
2021/12/07 00:41:58;;;;;;;18.33;14.67;;;;;;;1.73;76.35;98995.00;4960761;23;20229;-82
2021/12/07 00:44:28;;;;;;;20.13;14.47;;;;;;;1.70;75.51;98986.63;4918717;29;20242;-81
2021/12/07 00:46:55;;;;;;;19.77;15.17;;;;;;;1.71;75.94;98996.19;4910023;23;20226;-82
2021/12/07 00:49:25;;;;;;;19.80;15.33;;;;;;;1.79;75.26;98993.47;4921433;29;20198;-81
2021/12/07 00:51:55;;;;;;;20.00;15.00;;;;;;;1.76;75.66;98997.28;4937332;29;20220;-81
2021/12/07 00:54:22;;;;;;;20.20;14.97;;;;;;;1.58;76.18;98972.22;4920715;29;20229;-82
2021/12/07 00:56:49;;;;;;;18.60;14.60;;;;;;;1.66;75.94;98983.50;4919420;29;20656;-80
2021/12/07 00:59:25;;;;;;;18.07;13.63;;;;;;;1.67;75.38;98984.34;4937043;29;20293;-82
2021/12/07 01:02:16;;;;;;;18.87;14.13;;;;;;;1.65;75.20;98987.16;4959070;23;20230;-82
2021/12/07 01:04:52;;;;;;;20.23;14.13;;;;;;;1.75;74.83;98973.69;4912044;29;20255;-81
2021/12/07 01:07:58;;;;;;;19.73;14.87;;;;;;;1.67;75.29;98979.88;4936409;29;20239;-81
2021/12/07 01:25:05;;;;;;;18.47;14.60;;;;;;;1.36;76.92;98957.19;4947785;23;20225;-82
2021/12/07 01:27:35;;;;;;;20.97;14.83;;;;;;;1.33;77.35;98964.47;4920022;29;20243;-82
2021/12/07 01:30:14;;;;;;;21.63;15.37;;;;;;;1.28;77.75;98961.53;4942213;23;20213;-81
2021/12/07 01:33:08;;;;;;;21.20;15.17;;;;;;;1.04;78.16;98956.44;4936114;29;20233;-82
2021/12/07 01:38:40;;;;;;;19.13;14.63;;;;;;;1.11;78.22;98967.13;4941438;23;20210;-81
2021/12/07 01:42:44;;;;;;;19.33;15.17;;;;;;;0.99;77.44;98955.31;4932832;29;20293;-81
2021/12/07 01:47:40;;;;;;;20.70;14.80;;;;;;;1.13;76.59;98963.28;4910643;29;20240;-81
2021/12/07 01:51:05;;;;;;;20.67;15.20;;;;;;;1.04;76.61;98967.00;4906508;29;20238;-81
2021/12/07 01:53:10;;;;;;;19.90;14.33;;;;;;;1.00;77.17;98957.78;4919522;29;20258;-82
2021/12/07 02:01:32;;;;;;;20.53;15.10;;;;;;;0.96;77.50;98968.84;4874312;29;20231;-82
2021/12/07 02:04:02;;;;;;;21.80;15.53;;;;;;;0.96;77.26;98958.31;4873820;29;20224;-82
2021/12/07 02:06:31;;;;;;;20.17;15.00;;;;;;;1.00;77.18;98946.41;4921926;29;20202;-81
2021/12/07 02:09:05;;;;;;;19.83;14.47;;;;;;;1.07;77.26;98957.91;4927551;29;20226;-84
2021/12/07 02:11:45;;;;;;;20.77;15.10;;;;;;;0.98;77.09;98951.06;4928602;29;20225;-82
2021/12/07 02:14:18;;;;;;;19.33;14.50;;;;;;;1.06;76.88;98948.34;4912865;29;20273;-81
2021/12/07 02:17:03;;;;;;;19.87;14.53;;;;;;;1.00;76.97;98939.31;4943451;29;20229;-81
2021/12/07 02:19:32;;;;;;;18.73;14.33;;;;;;;1.02;76.58;98936.50;4943139;29;20743;-82
2021/12/07 02:22:09;;;;;;;20.23;14.60;;;;;;;1.06;76.22;98933.34;4933028;23;20256;-81
2021/12/07 02:24:49;;;;;;;19.70;14.63;;;;;;;0.97;76.74;98929.13;4957093;29;20224;-81
2021/12/07 02:27:17;;;;;;;19.87;14.43;;;;;;;0.97;76.45;98933.59;4964387;23;20296;-81
2021/12/07 02:30:23;;;;;;;18.00;13.73;;;;;;;1.14;75.52;98937.75;4931536;23;20226;-81
2021/12/07 02:32:55;;;;;;;19.23;13.43;;;;;;;1.26;75.30;98913.38;5012451;23;20238;-82
2021/12/07 02:35:26;;;;;;;21.13;14.70;;;;;;;1.19;75.33;98930.13;4916083;29;20270;-82
2021/12/07 02:38:03;;;;;;;19.50;14.40;;;;;;;1.10;75.38;98917.97;4932154;29;20672;-82
2021/12/07 02:40:33;;;;;;;20.07;14.30;;;;;;;1.14;75.43;98916.63;4930897;29;20645;-82
2021/12/07 02:43:01;;;;;;;19.67;14.37;;;;;;;1.25;75.34;98924.13;4931336;29;20221;-82
2021/12/07 02:45:30;;;;;;;18.93;14.00;;;;;;;1.24;74.82;98931.22;4951638;23;20328;-83
2021/12/07 02:47:59;;;;;;;19.13;13.93;;;;;;;1.27;75.17;98920.31;4934388;29;20292;-82
2021/12/07 02:50:33;;;;;;;18.90;13.20;;;;;;;1.23;75.08;98936.69;4948969;29;20256;-82
2021/12/07 02:53:02;;;;;;;16.93;13.00;;;;;;;1.27;75.23;98922.94;4932776;29;20223;-82
2021/12/07 02:55:34;;;;;;;18.33;14.23;;;;;;;1.35;74.88;98919.44;4949923;23;20253;-82
2021/12/07 02:58:02;;;;;;;18.77;14.07;;;;;;;1.36;74.83;98920.22;4930542;29;20289;-81
2021/12/07 03:00:37;;;;;;;19.90;14.00;;;;;;;1.33;74.97;98930.16;4911366;29;20234;-82
2021/12/07 03:03:09;;;;;;;18.90;13.83;;;;;;;1.19;74.62;98914.28;4927332;29;20528;-82
2021/12/07 03:05:49;;;;;;;19.43;13.53;;;;;;;1.29;75.05;98925.41;4929346;29;20301;-81
2021/12/07 03:28:14;;;;;;;20.20;13.17;;;;;;;1.13;74.82;98921.09;4933576;23;20272;-82
2021/12/07 03:30:49;;;;;;;18.37;12.97;;;;;;;1.10;75.02;98926.72;4898356;29;20340;-83
2021/12/07 03:33:24;;;;;;;19.50;13.87;;;;;;;1.17;75.42;98932.09;4929235;29;20237;-82
2021/12/07 03:35:53;;;;;;;18.10;13.90;;;;;;;1.22;74.93;98938.50;4911949;29;20217;-82
2021/12/07 03:38:21;;;;;;;19.17;13.13;;;;;;;1.24;73.82;98938.31;4948485;23;20264;-81
2021/12/07 03:40:48;;;;;;;18.40;13.67;;;;;;;1.24;74.46;98928.59;4916039;29;20233;-82
2021/12/07 03:43:17;;;;;;;19.53;13.33;;;;;;;1.26;73.91;98933.72;4914773;29;20197;-81
2021/12/07 03:45:44;;;;;;;18.57;13.43;;;;;;;1.15;74.68;98923.56;4929640;29;20229;-82
2021/12/07 03:48:17;;;;;;;18.67;13.40;;;;;;;1.13;74.55;98925.53;4931628;29;20228;-82
2021/12/07 03:50:47;;;;;;;18.33;13.73;;;;;;;1.08;74.08;98925.25;4947465;29;20300;-82
2021/12/07 03:53:15;;;;;;;17.97;13.27;;;;;;;1.11;74.46;98938.91;4934697;23;20246;-82
2021/12/07 03:55:43;;;;;;;18.57;13.57;;;;;;;1.19;75.15;98953.88;4916888;23;20227;-81
2021/12/07 03:58:12;;;;;;;19.40;13.73;;;;;;;1.28;73.92;98956.25;4878922;29;20231;-81
2021/12/07 04:00:46;;;;;;;18.70;13.70;;;;;;;1.27;74.35;98949.34;4927294;23;20221;-81
2021/12/07 04:03:16;;;;;;;18.80;13.67;;;;;;;1.23;74.50;98952.50;4943211;23;20233;-81
2021/12/07 04:05:50;;;;;;;20.80;14.03;;;;;;;1.21;74.67;98946.59;4936728;23;20245;-82
2021/12/07 04:08:28;;;;;;;18.50;13.40;;;;;;;1.24;74.56;98954.97;4916465;23;20221;-81
2021/12/07 04:11:04;;;;;;;21.27;14.17;;;;;;;1.24;74.61;98946.25;4938975;29;20253;-81
2021/12/07 04:13:36;;;;;;;19.60;13.87;;;;;;;1.14;73.69;98943.00;4937024;23;21251;-82
2021/12/07 04:16:11;;;;;;;20.00;13.17;;;;;;;1.20;73.74;98953.69;4950654;29;20245;-81
2021/12/07 04:18:47;;;;;;;18.47;13.63;;;;;;;1.10;74.67;98966.28;4945565;23;20233;-81
2021/12/07 04:21:25;;;;;;;20.83;13.73;;;;;;;1.08;74.83;98967.44;4934028;29;20230;-81
2021/12/07 04:23:52;;;;;;;20.17;14.30;;;;;;;1.13;74.57;98960.66;4942273;23;20308;-81
2021/12/07 04:26:21;;;;;;;19.60;14.00;;;;;;;1.18;74.74;98960.97;4919233;29;20198;-82
2021/12/07 04:28:53;;;;;;;18.20;13.43;;;;;;;1.22;74.58;98956.13;4921477;29;20237;-82
2021/12/07 04:31:20;;;;;;;16.87;12.80;;;;;;;1.09;74.14;98946.19;4931051;29;20240;-82
2021/12/07 04:33:54;;;;;;;18.97;14.10;;;;;;;1.18;74.54;98955.69;4930446;29;20299;-82
2021/12/07 04:36:21;;;;;;;21.10;14.00;;;;;;;1.09;74.93;98946.19;4928597;29;20237;-82
2021/12/07 04:38:48;;;;;;;20.77;14.77;;;;;;;1.12;75.04;98960.84;4912845;29;20596;-82
2021/12/07 04:41:16;;;;;;;21.33;14.73;;;;;;;0.96;75.38;98943.31;4929184;29;20300;-81
2021/12/07 04:43:44;;;;;;;19.87;14.30;;;;;;;1.04;74.84;98940.59;4929836;29;20248;-82
2021/12/07 04:46:30;;;;;;;21.00;14.60;;;;;;;1.05;75.17;98952.81;4930272;29;20229;-81
2021/12/07 05:00:03;;;;;;;18.87;13.30;;;;;;;0.99;74.68;98921.84;4942751;23;20193;-82
2021/12/07 05:03:05;;;;;;;19.70;12.80;;;;;;;1.02;74.26;98928.59;4921930;29;20224;-82
2021/12/07 05:05:50;;;;;;;19.17;13.97;;;;;;;1.12;73.88;98939.75;4939381;29;20213;-81
2021/12/07 05:08:31;;;;;;;20.60;13.43;;;;;;;1.10;73.41;98941.72;4951023;29;20222;-82
2021/12/07 05:13:52;;;;;;;20.23;14.20;;;;;;;1.02;74.13;98950.53;4953726;29;20186;-81
2021/12/07 05:38:39;;;;;;;19.80;14.03;;;;;;;0.91;74.27;98958.84;4939209;29;20316;-82
2021/12/07 05:41:08;;;;;;;20.70;14.67;;;;;;;0.77;74.81;98956.94;4959943;23;20255;-81
2021/12/07 05:43:57;;;;;;;20.70;14.00;;;;;;;0.90;74.39;98957.19;4941576;29;20200;-82
2021/12/07 05:46:24;;;;;;;21.33;14.70;;;;;;;0.74;75.18;98954.66;4937566;29;20252;-81
2021/12/07 05:49:10;;;;;;;21.17;14.27;;;;;;;0.82;75.92;98959.88;4953131;29;20229;-81
2021/12/07 05:51:48;;;;;;;22.27;15.13;;;;;;;0.96;74.45;98963.59;4965924;28;20293;-82
2021/12/07 05:54:22;;;;;;;21.10;15.07;;;;;;;0.78;75.22;98964.69;4937277;28;20253;-82
2021/12/07 05:57:10;;;;;;;20.30;14.53;;;;;;;0.85;75.56;98970.91;4951768;29;20312;-82
2021/12/07 05:59:40;;;;;;;21.73;15.33;;;;;;;0.75;75.50;98949.19;4949461;28;20265;-82
2021/12/07 06:02:11;;;;;;;21.07;14.87;;;;;;;0.95;75.73;98967.22;4950733;29;20194;-81
2021/12/07 06:04:59;;;;;;;22.97;15.87;;;;;;;0.81;75.65;98969.59;4952273;28;20230;-82
2021/12/07 06:07:29;;;;;;;23.10;15.97;;;;;;;0.81;76.08;98960.88;4948877;29;20225;-82
2021/12/07 06:09:56;;;;;;;22.10;15.73;;;;;;;0.86;75.57;98966.44;4944868;29;20234;-83
2021/12/07 06:12:23;;;;;;;23.47;15.53;;;;;;;0.98;74.37;98962.41;4962122;28;20202;-83
2021/12/07 06:14:55;;;;;;;22.67;16.10;;;;;;;0.82;75.12;98954.59;4929979;29;20284;-82
2021/12/07 06:17:24;;;;;;;22.70;15.40;;;;;;;0.93;75.17;98974.50;4950454;29;20224;-82
2021/12/07 06:19:54;;;;;;;21.20;14.77;;;;;;;1.07;74.81;98976.38;4952430;29;20220;-82
2021/12/07 06:22:33;;;;;;;21.93;14.87;;;;;;;1.05;74.22;98973.09;4952234;29;20216;-82
2021/12/07 06:25:02;;;;;;;23.23;15.80;;;;;;;1.06;75.41;98972.09;4935185;29;20254;-82
2021/12/07 06:27:30;;;;;;;23.30;16.43;;;;;;;1.07;75.04;98964.03;4951080;29;20222;-82
2021/12/07 06:30:00;;;;;;;23.80;16.33;;;;;;;1.06;74.46;98956.28;4951057;29;20331;-82
2021/12/07 06:32:31;;;;;;;23.03;15.93;;;;;;;1.03;75.05;98956.59;4970303;23;20238;-81
2021/12/07 06:34:59;;;;;;;21.03;14.40;;;;;;;1.20;74.81;98969.53;4947376;29;20234;-82
2021/12/07 06:37:28;;;;;;;23.17;15.33;;;;;;;1.26;74.40;98960.09;4962422;29;20242;-82
2021/12/07 06:40:01;;;;;;;23.00;14.93;;;;;;;1.11;74.22;98962.66;4933517;29;20238;-83
2021/12/07 06:42:29;;;;;;;22.93;15.73;;;;;;;1.02;74.58;98962.91;4948221;29;20242;-82
2021/12/07 06:45:13;;;;;;;23.03;15.30;;;;;;;1.02;74.78;98971.63;4958811;23;20233;-82
2021/12/07 06:47:44;;;;;;;23.83;15.17;;;;;;;1.12;74.59;98969.56;4922270;29;20237;-83
2021/12/07 06:50:16;;;;;;;21.90;15.33;;;;;;;0.94;74.64;98963.75;4952270;29;20278;-82
2021/12/07 06:52:43;;;;;;;26.27;16.57;;;;;;;0.87;74.33;98968.09;4919315;29;20293;-82
2021/12/07 06:55:10;;;;;;;23.47;16.30;;;;;;;0.74;75.74;98962.56;4928088;29;20304;-82
2021/12/07 06:57:37;;;;;;;26.03;16.43;;;;;;;0.70;75.91;98972.63;4925644;29;20257;-81
2021/12/07 07:00:09;;;;;;;22.50;15.20;;;;;;;0.85;75.66;98981.44;4910573;29;20230;-82
2021/12/07 07:02:37;;;;;;;23.50;15.20;;;;;;;0.83;75.50;98985.25;4894596;29;20239;-82
2021/12/07 07:05:11;;;;;;;22.17;15.77;;;;;;;0.84;75.89;98990.34;4928879;29;20236;-82
2021/12/07 07:07:42;;;;;;;24.87;16.27;;;;;;;0.81;76.40;98984.59;4917470;29;20306;-81
2021/12/07 07:10:16;;;;;;;24.73;16.93;;;;;;;0.77;76.28;98992.03;4933577;29;20198;-82
2021/12/07 07:12:47;;;;;;;25.20;17.37;;;;;;;0.73;76.00;98984.66;4916211;29;20242;-82
2021/12/07 07:15:14;;;;;;;24.33;15.87;;;;;;;0.88;75.34;98990.84;4915405;29;20229;-82
2021/12/07 07:17:45;;;;;;;26.83;17.10;;;;;;;0.88;75.92;98986.38;4950360;23;20233;31
2021/12/07 07:20:14;;;;;;;28.47;17.80;;;;;;;0.89;75.67;98992.47;4937092;29;20228;-82
2021/12/07 07:22:41;;;;;;;24.77;17.87;;;;;;;0.81;75.97;98995.16;4962231;28;20228;-83
2021/12/07 07:25:11;;;;;;;24.73;17.17;;;;;;;0.87;75.80;98989.19;4947560;29;20252;-82
2021/12/07 07:27:40;;;;;;;24.40;16.93;;;;;;;0.91;75.96;99003.66;4944864;29;20233;-82
2021/12/07 07:30:10;;;;;;;24.47;16.43;;;;;;;0.87;75.85;98997.94;4928016;29;20634;-82
2021/12/07 07:32:39;;;;;;;26.87;17.67;;;;;;;0.95;75.77;99007.59;4926863;29;20318;-82
2021/12/07 07:35:07;;;;;;;26.97;17.40;;;;;;;0.97;75.84;99007.44;4933332;29;20322;-82
2021/12/07 07:37:35;;;;;;;25.93;17.63;;;;;;;1.05;75.31;99013.47;4924991;29;20241;-82
2021/12/07 07:40:10;;;;;;;24.77;16.37;;;;;;;1.11;74.27;99007.53;4933750;29;20237;-82
2021/12/07 07:42:39;;;;;;;24.13;16.77;;;;;;;1.14;75.09;99006.34;4917936;29;20244;-82
2021/12/07 07:45:21;;;;;;;23.10;16.07;;;;;;;1.16;74.78;99017.56;4934754;29;20232;-81
2021/12/07 07:47:48;;;;;;;27.43;17.47;;;;;;;1.15;74.95;99014.09;4932237;29;20521;-82
2021/12/07 07:50:17;;;;;;;24.17;16.73;;;;;;;1.24;74.71;99013.03;4932324;29;20269;-82
2021/12/07 07:52:45;;;;;;;23.23;16.67;;;;;;;1.29;74.93;99007.22;4933133;29;20248;-83
2021/12/07 07:55:12;;;;;;;24.63;17.27;;;;;;;1.37;73.86;99020.38;4915406;29;20257;-82
2021/12/07 07:57:42;;;;;;;22.87;16.03;;;;;;;1.39;74.03;99017.56;4932153;29;20225;-82
2021/12/07 08:00:12;;;;;;;22.73;16.10;;;;;;;1.44;73.50;99013.41;4915757;29;20301;-82
2021/12/07 08:02:40;;;;;;;22.27;16.03;;;;;;;1.43;73.88;99001.19;4916384;29;20548;-82
2021/12/07 08:05:08;;;;;;;23.60;15.80;;;;;;;1.50;73.26;99007.41;4917280;29;20221;-82
2021/12/07 08:07:34;;;;;;;23.23;16.90;;;;;;;1.58;73.26;99015.28;4932106;29;20202;-82
2021/12/07 08:10:03;;;;;;;25.07;16.73;;;;;;;1.58;72.87;99003.88;4948474;29;20241;-82
2021/12/07 08:12:31;;;;;;;24.43;16.97;;;;;;;1.60;73.09;98993.94;4916957;29;20233;-83
2021/12/07 08:15:00;;;;;;;26.73;16.87;;;;;;;1.69;72.90;98988.44;4917461;29;20275;-82
2021/12/07 08:17:26;;;;;;;23.13;16.33;;;;;;;1.74;72.39;99001.09;4948361;29;20229;-82
2021/12/07 08:19:54;;;;;;;24.70;17.07;;;;;;;1.69;73.09;98996.34;4911932;29;20661;-82
2021/12/07 08:22:23;;;;;;;23.43;16.50;;;;;;;1.80;72.02;99013.59;4927834;29;20222;-83
2021/12/07 08:25:05;;;;;;;25.60;17.37;;;;;;;2.01;71.05;99016.34;4944424;29;20229;-82
2021/12/07 08:27:32;;;;;;;25.37;16.83;;;;;;;1.92;71.51;99012.16;4911789;29;20233;-82
2021/12/07 08:30:00;;;;;;;25.30;16.87;;;;;;;1.94;72.06;99006.69;4925416;29;20322;-82
2021/12/07 08:32:27;;;;;;;24.57;17.17;;;;;;;2.02;70.94;99003.97;4927640;29;20261;-82
2021/12/07 08:34:55;;;;;;;23.83;16.87;;;;;;;2.14;71.14;99010.47;4929121;29;20269;-82
2021/12/07 08:37:22;;;;;;;25.27;16.80;;;;;;;2.28;70.94;99014.97;4947718;23;20321;-82
2021/12/07 08:39:49;;;;;;;22.93;16.43;;;;;;;2.33;70.04;99025.81;4896749;29;20314;-82
2021/12/07 08:42:19;;;;;;;26.20;16.87;;;;;;;2.58;68.78;99016.59;4913343;29;20583;-82
2021/12/07 08:44:46;;;;;;;23.60;16.60;;;;;;;2.64;69.18;99029.09;4929194;29;20310;-82
2021/12/07 08:47:15;;;;;;;23.57;16.87;;;;;;;2.69;69.54;99023.25;4925944;29;20262;-82
2021/12/07 08:50:05;;;;;;;24.40;16.23;;;;;;;2.71;68.41;99017.78;4913352;29;20277;-82
2021/12/07 08:52:32;;;;;;;23.00;15.23;;;;;;;2.61;68.31;99013.56;4927390;29;20234;-82
2021/12/07 09:00:28;;;;;;;25.57;16.20;;;;;;;3.15;67.86;99025.63;4926631;29;20253;-82
2021/12/07 09:02:57;;;;;;;22.57;15.80;;;;;;;3.14;67.31;99022.16;4912071;29;20246;-82
2021/12/07 09:05:25;;;;;;;22.80;16.33;;;;;;;3.13;67.20;99015.19;4926879;29;20238;-83
2021/12/07 09:07:53;;;;;;;22.00;16.00;;;;;;;3.25;66.83;99032.25;4911602;29;20609;-82
2021/12/07 09:10:24;;;;;;;22.83;16.37;;;;;;;3.27;66.77;99022.28;4926644;29;20242;-83
2021/12/07 09:12:51;;;;;;;22.40;16.53;;;;;;;3.29;66.72;99014.16;4911880;29;20202;-82
2021/12/07 09:15:18;;;;;;;19.67;14.70;;;;;;;3.39;65.87;99012.84;4926703;29;20308;-83
2021/12/07 09:17:46;;;;;;;20.93;14.87;;;;;;;3.44;66.21;99007.00;4910864;29;20290;-82
2021/12/07 09:20:16;;;;;;;18.80;14.17;;;;;;;3.54;66.24;99016.28;4926811;29;20242;-82
2021/12/07 09:22:51;;;;;;;18.43;14.10;;;;;;;3.56;65.42;99018.72;4925085;29;20234;-82
2021/12/07 09:25:18;;;;;;;18.20;14.17;;;;;;;3.64;65.76;99028.38;4926454;29;20233;-83
2021/12/07 09:27:47;;;;;;;20.97;14.70;;;;;;;3.69;65.66;99005.59;4895331;29;20234;-82
2021/12/07 09:30:17;;;;;;;19.93;14.23;;;;;;;3.68;65.30;99011.09;4909766;29;20542;-83
2021/12/07 09:32:48;;;;;;;19.10;14.40;;;;;;;3.65;64.74;99000.84;4925236;29;20241;-83
2021/12/07 09:35:16;;;;;;;18.77;13.00;;;;;;;3.76;65.66;98998.53;4915502;29;20261;-83
2021/12/07 09:37:46;;;;;;;18.13;13.23;;;;;;;3.66;65.85;99005.97;4909008;29;20241;-83
2021/12/07 09:40:15;;;;;;;18.53;13.33;;;;;;;3.73;65.72;99012.16;4909322;29;20290;-83
2021/12/07 09:42:43;;;;;;;17.43;13.17;;;;;;;3.85;65.36;99013.28;4909740;29;20678;-81
2021/12/07 09:45:11;;;;;;;17.33;13.60;;;;;;;3.73;64.96;99006.03;4924880;29;20297;-82
2021/12/07 09:47:40;;;;;;;16.80;13.03;;;;;;;3.72;64.88;99015.00;4925237;29;20601;-82
2021/12/07 09:50:12;;;;;;;18.47;13.23;;;;;;;3.73;64.89;99019.28;4925088;29;20305;-82
2021/12/07 09:52:45;;;;;;;16.10;12.93;;;;;;;3.66;65.77;99013.91;4903302;29;20246;-82
2021/12/07 09:55:13;;;;;;;19.03;13.67;;;;;;;3.66;65.11;99010.44;4891135;29;20234;-83
2021/12/07 09:57:40;;;;;;;17.30;13.60;;;;;;;3.61;65.80;99002.25;4906188;29;20225;-82
2021/12/07 10:00:11;;;;;;;18.07;13.37;;;;;;;3.53;66.06;99001.38;4904212;29;20326;-82
2021/12/07 10:02:43;;;;;;;20.13;14.03;;;;;;;3.61;66.53;99010.19;4906442;29;20236;-83
2021/12/07 10:05:13;;;;;;;19.07;13.00;;;;;;;3.66;66.07;99003.31;4907079;29;20225;-82
2021/12/07 10:07:43;;;;;;;16.87;12.30;;;;;;;3.74;65.08;98997.06;4906410;29;20615;-82
2021/12/07 10:10:30;;;;;;;18.87;13.17;;;;;;;3.84;65.20;99001.03;4907294;29;20243;-82
2021/12/07 10:12:58;;;;;;;17.80;13.07;;;;;;;3.95;65.59;99011.13;4905784;29;20234;-82
2021/12/07 10:15:26;;;;;;;19.13;14.50;;;;;;;4.02;64.63;98991.78;4906017;29;20286;-83
2021/12/07 10:18:12;;;;;;;18.17;13.10;;;;;;;4.07;64.31;99016.69;4890932;29;20241;-82
2021/12/07 10:21:03;;;;;;;16.83;12.40;;;;;;;4.16;63.81;99010.22;4904903;29;20321;-82
2021/12/07 10:23:40;;;;;;;17.33;12.43;;;;;;;4.38;63.84;99011.84;4905821;29;20503;-82
2021/12/07 10:26:20;;;;;;;15.57;12.23;;;;;;;4.64;62.64;99016.44;4926556;29;20222;-82
2021/12/07 10:28:55;;;;;;;17.83;12.73;;;;;;;4.78;62.29;99009.38;4924204;29;20634;-82
2021/12/07 10:31:39;;;;;;;16.60;12.87;;;;;;;4.87;62.15;98993.09;4908370;29;20234;-82
2021/12/07 10:34:11;;;;;;;16.93;12.40;;;;;;;5.04;61.88;99011.31;4923762;29;20297;-82
2021/12/07 10:36:43;;;;;;;17.33;14.07;;;;;;;4.91;61.73;99013.91;4923686;29;20238;-82
2021/12/07 10:39:17;;;;;;;16.37;12.23;;;;;;;4.99;61.24;99017.22;4958895;28;20265;-82
2021/12/07 10:41:49;;;;;;;17.07;12.33;;;;;;;4.63;62.09;99011.34;4943301;29;20241;-82
2021/12/07 10:44:36;;;;;;;16.27;13.10;;;;;;;4.92;61.67;99011.06;4927867;28;20280;-82
2021/12/07 10:47:08;;;;;;;17.83;13.20;;;;;;;4.76;62.73;99004.25;4926381;29;20217;-82
2021/12/07 10:49:39;;;;;;;16.43;11.63;;;;;;;4.69;62.79;99002.59;4929730;29;20229;-82
2021/12/07 10:52:22;;;;;;;14.33;10.60;;;;;;;4.87;62.50;99000.22;4903679;29;20234;-82
2021/12/07 10:55:16;;;;;;;14.20;10.17;;;;;;;4.98;60.88;98993.53;4906317;29;20241;-82
2021/12/07 10:57:50;;;;;;;13.47;10.50;;;;;;;5.08;61.57;98997.47;4904213;29;20290;-82
2021/12/07 11:00:23;;;;;;;14.97;10.67;;;;;;;5.16;61.43;99001.75;4889594;29;20244;-82
2021/12/07 11:02:55;;;;;;;12.70;10.03;;;;;;;5.14;60.18;99004.59;4912284;29;20234;-83
2021/12/07 11:05:33;;;;;;;14.43;10.73;;;;;;;5.15;60.55;99010.72;4916037;29;20246;-82
2021/12/07 11:08:01;;;;;;;13.43;10.70;;;;;;;4.93;60.89;98993.31;4906343;29;20245;-82
2021/12/07 11:10:31;;;;;;;13.90;10.60;;;;;;;4.97;62.05;99011.28;4890158;29;20242;-82
2021/12/07 11:13:18;;;;;;;13.23;10.60;;;;;;;4.79;61.83;98998.56;4906207;29;20222;-83
2021/12/07 11:16:06;;;;;;;12.97;10.93;;;;;;;4.71;62.17;99000.56;4905210;29;20238;-82
2021/12/07 11:18:37;;;;;;;13.70;10.80;;;;;;;4.79;62.91;99001.22;4874912;29;20237;-82
2021/12/07 11:21:12;;;;;;;16.47;10.87;;;;;;;5.04;61.88;98998.84;4875212;29;20264;-82
2021/12/07 11:23:46;;;;;;;14.73;10.87;;;;;;;5.16;61.10;98999.09;4908270;29;20535;-83
2021/12/07 11:32:01;;;;;;;12.80;10.80;;;;;;;5.19;61.21;98996.03;4876943;29;20234;-82
2021/12/07 11:34:36;;;;;;;13.33;10.10;;;;;;;5.26;61.01;98994.22;4873742;29;20258;-83
2021/12/07 11:37:10;;;;;;;14.57;10.90;;;;;;;5.20;61.20;98984.41;4886648;29;20658;-82
2021/12/07 11:39:47;;;;;;;14.93;10.97;;;;;;;5.14;61.34;98995.81;4885603;29;20290;-83
2021/12/07 11:42:22;;;;;;;14.17;11.43;;;;;;;5.25;61.31;98996.06;4886259;29;20227;-83
2021/12/07 11:44:53;;;;;;;15.73;11.30;;;;;;;5.17;61.86;99003.41;4871600;29;20950;-82
2021/12/07 11:47:28;;;;;;;13.77;10.63;;;;;;;5.14;61.30;98985.19;4884571;29;20610;-82
2021/12/07 11:49:58;;;;;;;12.87;10.57;;;;;;;5.30;61.41;99004.25;4887476;29;20245;-82
2021/12/07 11:52:25;;;;;;;15.03;10.63;;;;;;;5.27;60.94;98990.56;4886374;29;20262;-83
2021/12/07 11:54:53;;;;;;;12.67;10.07;;;;;;;5.24;61.86;98993.59;4899452;29;20267;-82
2021/12/07 11:57:23;;;;;;;14.67;10.83;;;;;;;5.34;61.86;98991.38;4889497;29;20262;-82
2021/12/07 11:59:50;;;;;;;14.20;11.03;;;;;;;5.17;61.41;98963.56;4905245;29;20218;-82
2021/12/07 12:02:22;;;;;;;14.50;11.07;;;;;;;5.29;61.63;98983.19;4888759;29;20262;-82
2021/12/07 12:04:51;;;;;;;14.10;10.97;;;;;;;5.31;61.59;98983.81;4900067;23;20234;-82
2021/12/07 12:07:21;;;;;;;14.73;11.03;;;;;;;5.33;62.24;98976.47;4945110;29;20226;-83
2021/12/07 12:09:51;;;;;;;16.00;11.50;;;;;;;5.41;62.34;98981.59;4929025;29;20329;-82
2021/12/07 12:12:29;;;;;;;16.97;12.80;;;;;;;5.50;62.24;98992.84;4928515;29;20304;-82
2021/12/07 12:15:05;;;;;;;15.70;11.83;;;;;;;5.42;62.92;98985.03;4929049;29;20233;-82
2021/12/07 12:17:41;;;;;;;17.07;11.83;;;;;;;5.34;63.84;98975.44;4948594;29;20213;-82
2021/12/07 12:20:32;;;;;;;17.43;12.77;;;;;;;5.31;64.09;98983.81;4946163;29;20241;-82
2021/12/07 12:23:20;;;;;;;16.23;12.90;;;;;;;5.24;64.20;98978.47;4917466;29;20225;-83
2021/12/07 12:25:59;;;;;;;17.63;12.70;;;;;;;5.46;63.48;98987.09;4949032;29;20313;-82
2021/12/07 12:28:41;;;;;;;17.77;12.77;;;;;;;5.36;64.29;98972.59;4933381;29;20235;-82
2021/12/07 12:31:56;;;;;;;15.70;12.30;;;;;;;5.47;63.80;98962.16;4933922;29;20229;-82
2021/12/07 12:34:28;;;;;;;15.17;12.33;;;;;;;5.51;63.63;98975.84;4951858;29;20229;-81
2021/12/07 12:37:05;;;;;;;15.27;11.70;;;;;;;5.27;64.70;98971.97;4949797;29;20233;-82
2021/12/07 12:39:50;;;;;;;16.13;11.90;;;;;;;5.17;64.93;98966.22;4949897;29;20261;-82
2021/12/07 12:42:22;;;;;;;13.97;11.70;;;;;;;5.15;64.96;98968.25;5033511;23;20237;-82
2021/12/07 12:45:23;;;;;;;16.17;11.23;;;;;;;5.18;64.98;98955.38;4949209;29;20202;-82
2021/12/07 12:48:02;;;;;;;12.50;10.20;;;;;;;5.27;64.44;98969.31;4951533;29;20289;-83
2021/12/07 12:50:44;;;;;;;14.03;11.10;;;;;;;5.31;64.65;98968.72;4950475;29;20257;-82
2021/12/07 12:53:32;;;;;;;11.13;9.10;;;;;;;5.33;64.36;98960.50;4931255;29;20241;-82
2021/12/07 12:56:08;;;;;;;10.33;8.20;;;;;;;5.38;64.22;98967.88;4939574;29;20263;-83
2021/12/07 12:58:47;;;;;;;9.60;7.53;;;;;;;5.47;63.73;98971.97;4932784;29;20586;-83
2021/12/07 13:01:26;;;;;;;8.40;6.03;;;;;;;5.26;64.10;98957.88;4931899;29;20237;-82
2021/12/07 13:04:11;;;;;;;8.30;6.53;;;;;;;5.26;64.51;98965.84;4931920;29;20284;-83
2021/12/07 13:06:53;;;;;;;5.87;4.60;;;;;;;5.29;63.29;98957.47;4949127;29;20268;-81
2021/12/07 13:09:31;;;;;;;5.00;4.50;;;;;;;5.18;63.40;98963.34;4959048;23;20234;-83
2021/12/07 13:12:02;;;;;;;5.03;3.83;;;;;;;5.06;63.41;98962.31;4930003;29;20311;-83
2021/12/07 13:14:53;;;;;;;4.97;3.70;;;;;;;4.85;64.32;98951.84;4932578;29;20222;-82
2021/12/07 13:17:30;;;;;;;4.90;4.20;;;;;;;5.00;64.56;98964.94;4949781;29;20296;-82
2021/12/07 13:20:14;;;;;;;6.47;4.80;;;;;;;4.99;64.85;98974.75;4949821;29;20284;-83
2021/12/07 13:22:53;;;;;;;5.90;4.90;;;;;;;5.07;64.01;98974.56;4957949;23;20232;-82
2021/12/07 13:25:23;;;;;;;7.67;6.60;;;;;;;4.97;64.44;98968.81;4934332;29;20240;-82
2021/12/07 13:28:10;;;;;;;6.83;5.53;;;;;;;4.91;64.65;98976.75;4933516;29;20229;-82
2021/12/07 13:30:48;;;;;;;6.10;5.00;;;;;;;4.94;63.88;98977.19;4946492;23;20246;-82
2021/12/07 13:33:44;;;;;;;5.67;4.87;;;;;;;4.90;64.63;98973.28;4913428;29;20329;-81